Time;durP1;ratioP1;P1;durP2;ratioP2;P2;SDS_P1;SDS_P2;PMS_P1;PMS_P2;Temp;Humidity;BMP_temperature;BMP_pressure;BME280_temperature;BME280_humidity;BME280_pressure;Samples;Min_cycle;Max_cycle;Signal;HPM_P1;HPM_P2
2023/04/20 00:01:47;;;;;;;1999.90;999.90;;;7.50;15.00;;;;;;4893032;29;20052;-72
2023/04/20 00:04:14;;;;;;;1999.90;999.90;;;8.50;16.80;;;;;;4889538;29;20076;-75
2023/04/20 00:06:42;;;;;;;1999.90;999.90;;;8.10;21.20;;;;;;4895686;29;20052;-78
2023/04/20 00:09:12;;;;;;;1999.90;999.90;;;7.10;19.70;;;;;;4891471;29;20489;-75
2023/04/20 00:11:37;;;;;;;1999.90;611.75;;;7.10;15.40;;;;;;4895991;29;20056;-73
2023/04/20 00:14:03;;;;;;;1999.90;999.90;;;7.20;20.00;;;;;;4872108;29;20064;-74
2023/04/20 00:16:29;;;;;;;1999.72;362.83;;;7.60;21.00;;;;;;4888322;29;20076;-74
2023/04/20 00:18:55;;;;;;;1999.90;467.35;;;7.50;23.20;;;;;;4893344;29;20063;-73
2023/04/20 00:21:22;;;;;;;1999.90;999.90;;;7.30;21.80;;;;;;4897601;29;20049;-73
2023/04/20 00:23:49;;;;;;;1999.90;999.90;;;7.30;20.60;;;;;;4896187;29;20080;-73
2023/04/20 00:26:15;;;;;;;1999.90;999.90;;;;;;;;;;4886707;29;20378;-73
2023/04/20 00:28:41;;;;;;;1999.90;347.20;;;7.40;10.00;;;;;;4896265;29;20060;-73
2023/04/20 00:31:07;;;;;;;1999.90;999.90;;;7.50;17.50;;;;;;4895927;29;20410;-73
2023/04/20 00:33:33;;;;;;;1999.90;999.90;;;7.50;17.30;;;;;;4892826;29;20128;-73
2023/04/20 00:35:59;;;;;;;1999.90;999.90;;;7.40;21.30;;;;;;4893844;29;20048;-73
2023/04/20 00:38:24;;;;;;;1999.90;999.90;;;7.40;20.40;;;;;;4897381;29;20070;-73
2023/04/20 00:40:52;;;;;;;1999.90;999.90;;;7.40;18.30;;;;;;4894083;29;20063;-73
2023/04/20 00:43:21;;;;;;;1999.90;999.90;;;7.50;32.40;;;;;;4896439;29;20045;-73
2023/04/20 00:45:47;;;;;;;1999.90;999.90;;;7.60;14.10;;;;;;4881777;29;20052;-73
2023/04/20 00:48:13;;;;;;;1999.90;999.90;;;7.70;20.30;;;;;;4894528;29;20048;-73
2023/04/20 00:50:39;;;;;;;1999.90;999.90;;;7.80;10.00;;;;;;4895069;29;20382;-73
2023/04/20 00:53:07;;;;;;;1999.90;999.90;;;7.80;8.20;;;;;;4891361;29;20512;-73
2023/04/20 00:55:34;;;;;;;1999.90;999.90;;;8.20;1.00;;;;;;4903783;29;20719;-73
2023/04/20 00:58:01;;;;;;;1999.90;999.90;;;8.00;4.70;;;;;;4894451;29;20505;-75
2023/04/20 01:00:26;;;;;;;1999.90;999.90;;;8.30;19.20;;;;;;4884934;29;20037;-73
2023/04/20 01:02:52;;;;;;;1999.90;999.90;;;8.30;1.00;;;;;;4889439;29;20386;-73
2023/04/20 01:05:18;;;;;;;1999.90;673.10;;;8.10;1.00;;;;;;4882635;29;20401;-72
2023/04/20 01:07:44;;;;;;;1999.90;547.40;;;7.80;1.00;;;;;;4883667;29;20053;-73
2023/04/20 01:10:10;;;;;;;1999.90;999.90;;;8.20;1.00;;;;;;4887556;29;20056;-73
2023/04/20 01:12:35;;;;;;;1999.90;695.78;;;8.20;1.00;;;;;;4889836;29;20037;-74
2023/04/20 01:15:04;;;;;;;1908.50;789.08;;;8.20;1.00;;;;;;4885966;29;20044;-73
2023/04/20 01:17:30;;;;;;;1999.90;831.28;;;8.30;1.00;;;;;;4888283;29;20057;-73
2023/04/20 01:19:58;;;;;;;1999.90;809.33;;;8.30;1.00;;;;;;4887884;29;20673;-72
2023/04/20 01:22:25;;;;;;;1999.90;232.32;;;8.40;1.00;;;;;;4886250;29;20045;-73
2023/04/20 01:24:51;;;;;;;1999.90;514.53;;;8.40;1.00;;;;;;4883726;29;20059;-72
2023/04/20 01:27:17;;;;;;;1999.90;999.90;;;8.40;1.00;;;;;;4886991;29;20049;-72
2023/04/20 01:29:44;;;;;;;1999.90;999.90;;;8.40;1.00;;;;;;4890163;29;20498;-73
2023/04/20 01:32:10;;;;;;;1999.90;616.38;;;8.60;1.00;;;;;;4881092;29;20053;-72
2023/04/20 01:34:36;;;;;;;1999.90;463.80;;;8.50;1.00;;;;;;4889397;29;20559;-73
2023/04/20 01:37:06;;;;;;;1993.88;805.78;;;8.80;1.00;;;;;;4880984;29;20096;-72
2023/04/20 01:39:37;;;;;;;1999.90;615.35;;;8.50;1.00;;;;;;4888693;29;20395;-73
2023/04/20 01:42:03;;;;;;;1999.90;804.05;;;8.70;5.80;;;;;;4883138;29;20084;-73
2023/04/20 01:44:29;;;;;;;1999.90;425.17;;;8.40;1.00;;;;;;4885714;29;20490;-73
2023/04/20 01:46:55;;;;;;;1999.90;999.90;;;8.60;1.00;;;;;;4883232;29;20056;-73
2023/04/20 01:49:20;;;;;;;1999.90;999.90;;;8.40;1.60;;;;;;4884439;29;20423;-73
2023/04/20 01:51:46;;;;;;;1999.90;999.90;;;8.40;1.00;;;;;;4884279;29;20063;-74
2023/04/20 01:54:12;;;;;;;1999.90;618.72;;;8.40;2.90;;;;;;4889923;29;20041;-74
2023/04/20 01:56:37;;;;;;;1999.90;591.60;;;8.30;4.30;;;;;;4900330;29;20084;-74
2023/04/20 01:59:03;;;;;;;1931.35;783.88;;;8.40;8.40;;;;;;4872276;29;20056;-76
2023/04/20 02:01:29;;;;;;;1999.90;334.73;;;8.30;8.80;;;;;;4881803;29;20049;-74
2023/04/20 02:03:54;;;;;;;1999.90;614.08;;;8.30;7.10;;;;;;4883980;29;21434;-73
2023/04/20 02:06:20;;;;;;;1999.90;189.27;;;8.30;9.40;;;;;;4882330;29;20041;-73
2023/04/20 02:08:46;;;;;;;1829.95;197.63;;;8.30;11.40;;;;;;4889656;29;20045;-73
2023/04/20 02:11:12;;;;;;;1999.90;603.92;;;8.20;14.60;;;;;;4892291;29;20044;-73
2023/04/20 02:13:38;;;;;;;1999.90;649.60;;;8.10;13.30;;;;;;4896694;29;20037;-72
2023/04/20 02:16:04;;;;;;;1701.95;564.35;;;7.90;17.20;;;;;;4891172;29;21190;-72
2023/04/20 02:18:31;;;;;;;1999.90;999.90;;;7.80;20.00;;;;;;4882956;29;20075;-73
2023/04/20 02:20:58;;;;;;;1999.90;999.90;;;7.70;23.60;;;;;;4890119;29;20067;-73
2023/04/20 02:23:24;;;;;;;1999.90;999.90;;;7.70;25.80;;;;;;4895281;29;20071;-73
2023/04/20 02:25:50;;;;;;;1999.90;999.90;;;7.60;28.20;;;;;;4879733;29;20490;-73
2023/04/20 02:28:15;;;;;;;1611.05;556.03;;;7.50;47.60;;;;;;4890214;29;20052;-73
2023/04/20 02:30:42;;;;;;;1999.90;999.90;;;7.50;44.50;;;;;;4897664;29;20438;-73
2023/04/20 02:33:07;;;;;;;1999.90;606.42;;;7.50;42.40;;;;;;4895750;29;20044;-74
2023/04/20 02:35:33;;;;;;;1999.90;999.90;;;7.70;43.50;;;;;;4865021;29;20524;-73
2023/04/20 02:38:00;;;;;;;1999.90;999.90;;;7.60;44.90;;;;;;4861081;29;20078;-73
2023/04/20 02:40:26;;;;;;;1999.90;999.90;;;7.70;65.40;;;;;;4883612;29;20057;-73
2023/04/20 02:42:52;;;;;;;1999.90;999.90;;;;;;;;;;4891161;29;20061;-73
2023/04/20 02:45:17;;;;;;;1999.90;999.90;;;7.40;72.20;;;;;;4893788;29;20482;-73
2023/04/20 02:47:43;;;;;;;1999.90;999.90;;;7.80;50.60;;;;;;4897136;29;20052;-72
2023/04/20 02:50:10;;;;;;;1999.90;999.90;;;7.80;50.90;;;;;;4897095;29;20083;-76
2023/04/20 02:52:35;;;;;;;1999.90;999.90;;;7.90;48.20;;;;;;4887394;29;20045;-73
2023/04/20 02:55:01;;;;;;;1999.90;999.90;;;7.90;46.10;;;;;;4886448;29;20044;-73
2023/04/20 02:57:27;;;;;;;1999.90;999.90;;;7.90;45.30;;;;;;4880793;29;20052;-72
2023/04/20 02:59:53;;;;;;;1999.90;804.83;;;8.00;44.60;;;;;;4893354;29;20052;-72
2023/04/20 03:02:19;;;;;;;1999.90;204.65;;;8.00;42.40;;;;;;4896404;29;20080;-72
2023/04/20 03:04:44;;;;;;;1999.90;285.73;;;8.10;38.40;;;;;;4896804;29;20053;-73
2023/04/20 03:07:10;;;;;;;1999.90;999.90;;;8.10;34.40;;;;;;4895439;29;20064;-72
2023/04/20 03:09:36;;;;;;;1999.90;324.48;;;8.20;27.50;;;;;;4895809;29;20053;-73
2023/04/20 03:12:03;;;;;;;1999.90;999.90;;;8.20;21.60;;;;;;4878094;29;20136;-73
2023/04/20 03:14:29;;;;;;;1999.90;999.90;;;8.20;23.80;;;;;;4887409;29;20414;-73
2023/04/20 03:16:54;;;;;;;1999.90;999.90;;;8.70;19.70;;;;;;4893993;29;20052;-73
2023/04/20 03:19:20;;;;;;;1999.90;999.90;;;7.90;30.20;;;;;;4881263;29;20045;-73
2023/04/20 03:21:46;;;;;;;1999.90;999.90;;;8.20;18.30;;;;;;4877672;29;20127;-73
2023/04/20 03:24:11;;;;;;;1999.90;652.42;;;8.30;10.70;;;;;;4893936;29;20506;-72
2023/04/20 03:26:37;;;;;;;1999.90;999.90;;;8.30;8.30;;;;;;4896018;29;20489;-76
2023/04/20 03:29:03;;;;;;;1999.90;657.78;;;8.30;3.80;;;;;;4888668;29;20048;-73
2023/04/20 03:31:29;;;;;;;1999.90;999.90;;;8.30;1.40;;;;;;4880858;29;20049;-72
2023/04/20 03:33:54;;;;;;;1999.90;674.70;;;8.30;1.00;;;;;;4890887;29;20478;-72
2023/04/20 03:36:20;;;;;;;1999.90;625.50;;;8.30;1.00;;;;;;4879356;29;20057;-72
2023/04/20 03:38:46;;;;;;;1999.90;999.90;;;8.50;1.00;;;;;;4888934;29;20080;-72
2023/04/20 03:41:11;;;;;;;1999.90;809.95;;;8.30;1.00;;;;;;4896836;29;20048;-72
2023/04/20 03:43:37;;;;;;;1999.90;999.90;;;8.20;1.00;;;;;;4896090;29;20048;-72
2023/04/20 03:46:03;;;;;;;1999.90;730.80;;;8.20;1.00;;;;;;4892398;29;20450;-72
2023/04/20 03:48:28;;;;;;;1999.90;399.13;;;8.20;1.00;;;;;;4885134;29;20049;-73
2023/04/20 03:50:54;;;;;;;1999.90;999.90;;;8.50;1.00;;;;;;4877830;29;20052;-73
2023/04/20 03:53:20;;;;;;;1999.90;651.97;;;8.30;1.00;;;;;;4880804;29;20084;-73
2023/04/20 03:55:45;;;;;;;1999.90;660.63;;;8.30;1.00;;;;;;4883344;29;20078;-72
2023/04/20 03:58:11;;;;;;;1999.90;999.90;;;8.30;1.00;;;;;;4896954;29;20454;-72
2023/04/20 04:00:37;;;;;;;1999.90;741.45;;;8.40;1.00;;;;;;4887041;29;20049;-72
2023/04/20 04:03:02;;;;;;;1999.90;999.90;;;8.30;1.00;;;;;;4885070;29;20045;-73
2023/04/20 04:05:28;;;;;;;1999.90;999.90;;;7.90;1.00;;;;;;4890852;29;20049;-72
2023/04/20 04:07:54;;;;;;;1999.90;876.72;;;8.40;1.00;;;;;;4889697;29;20155;-73
2023/04/20 04:10:20;;;;;;;1999.90;537.70;;;8.40;1.00;;;;;;4893443;29;20079;-76
2023/04/20 04:12:46;;;;;;;1999.90;999.90;;;6.40;1.00;;;;;;4890319;29;20196;-73
2023/04/20 04:15:12;;;;;;;1999.90;296.75;;;8.20;1.00;;;;;;4890331;29;20542;-73
2023/04/20 04:17:38;;;;;;;1999.90;632.25;;;8.20;1.00;;;;;;4891883;29;20494;-73
2023/04/20 04:20:07;;;;;;;1999.90;540.65;;;8.10;1.00;;;;;;4899504;29;20113;-74
2023/04/20 04:22:32;;;;;;;1999.90;999.90;;;7.80;4.30;;;;;;4891073;29;20103;-73
2023/04/20 04:24:58;;;;;;;1999.90;999.90;;;7.90;1.00;;;;;;4898592;29;20065;-73
2023/04/20 04:27:24;;;;;;;1999.90;649.33;;;7.90;1.00;;;;;;4887045;29;20127;-74
2023/04/20 04:29:49;;;;;;;1999.90;999.90;;;7.80;1.00;;;;;;4889911;29;20049;-74
2023/04/20 04:32:16;;;;;;;1999.90;999.90;;;7.70;7.60;;;;;;4882348;29;20045;-74
2023/04/20 04:34:43;;;;;;;1999.90;821.47;;;7.90;1.00;;;;;;4880668;29;20052;-74
2023/04/20 04:37:13;;;;;;;1999.90;292.08;;;7.90;1.00;;;;;;4896613;29;20531;-74
2023/04/20 04:39:39;;;;;;;1999.90;999.90;;;8.90;10.80;;;;;;4892638;29;20487;-74
2023/04/20 04:42:04;;;;;;;1939.78;799.80;;;7.80;6.20;;;;;;4873697;29;20176;-75
2023/04/20 04:44:30;;;;;;;1999.90;610.17;;;7.80;5.50;;;;;;4872437;29;20140;-74
2023/04/20 04:46:57;;;;;;;1999.90;306.67;;;7.80;7.80;;;;;;4877860;29;20051;-74
2023/04/20 04:49:26;;;;;;;1999.90;595.15;;;7.70;10.80;;;;;;4881228;29;20107;-75
2023/04/20 04:51:52;;;;;;;1999.90;999.90;;;7.60;16.50;;;;;;4879896;29;20047;-75
2023/04/20 04:54:17;;;;;;;1999.90;999.90;;;7.50;22.60;;;;;;4886173;29;20044;-77
2023/04/20 04:56:43;;;;;;;1999.90;999.90;;;7.10;65.40;;;;;;4888781;29;20052;-74
2023/04/20 04:59:09;;;;;;;1999.90;999.90;;;7.50;54.30;;;;;;4888498;29;20616;-75
2023/04/20 05:01:35;;;;;;;1999.90;999.90;;;7.10;31.60;;;;;;4886043;29;20057;-75
2023/04/20 05:04:00;;;;;;;1917.30;790.65;;;7.40;69.90;;;;;;4878760;29;20124;-75
2023/04/20 05:06:26;;;;;;;1999.90;999.90;;;7.30;43.80;;;;;;4885532;29;20081;-76
2023/04/20 05:08:52;;;;;;;1999.90;626.03;;;8.40;53.00;;;;;;4869721;29;20056;-78
2023/04/20 05:11:18;;;;;;;1999.90;999.90;;;7.00;42.30;;;;;;4884015;29;20064;-75
2023/04/20 05:13:44;;;;;;;1999.90;999.90;;;8.20;93.90;;;;;;4861533;29;20153;-79
2023/04/20 05:16:09;;;;;;;1999.90;999.90;;;5.40;72.50;;;;;;4900148;29;20041;-76
2023/04/20 05:18:35;;;;;;;1999.90;999.90;;;7.80;84.20;;;;;;4889696;29;20060;-75
2023/04/20 05:21:01;;;;;;;1999.90;999.90;;;7.00;68.70;;;;;;4887831;29;20048;-75
2023/04/20 05:23:27;;;;;;;1999.90;999.90;;;7.60;96.10;;;;;;4884050;29;20405;-76
2023/04/20 05:25:52;;;;;;;1999.90;999.90;;;6.70;98.10;;;;;;4886434;29;20128;-75
2023/04/20 05:28:18;;;;;;;1999.90;999.90;;;8.00;99.40;;;;;;4893281;29;20037;-76
2023/04/20 05:30:44;;;;;;;1999.90;999.90;;;6.90;99.90;;;;;;4886951;29;20063;-76
2023/04/20 05:33:09;;;;;;;1955.95;589.83;;;7.30;99.90;;;;;;4884502;29;20490;-80
2023/04/20 05:35:35;;;;;;;1999.90;999.90;;;6.60;99.90;;;;;;4887543;29;20155;-75
2023/04/20 05:38:04;;;;;;;1999.90;999.90;;;6.70;99.90;;;;;;4889979;29;20044;-76
2023/04/20 05:40:33;;;;;;;1999.90;999.90;;;6.70;99.90;;;;;;4893614;29;20045;-75
2023/04/20 05:42:58;;;;;;;1999.90;999.90;;;6.90;99.90;;;;;;4890032;29;20485;-76
2023/04/20 05:45:24;;;;;;;1999.90;999.90;;;6.90;99.90;;;;;;4890108;29;20059;-76
2023/04/20 05:47:56;;;;;;;1836.40;768.38;;;6.80;99.90;;;;;;4885936;29;20086;-76
2023/04/20 05:50:24;;;;;;;1999.90;999.90;;;6.80;99.90;;;;;;4889388;29;20067;-76
2023/04/20 05:52:50;;;;;;;1999.90;999.90;;;6.60;99.90;;;;;;4881105;29;21330;-76
2023/04/20 05:55:17;;;;;;;1999.90;999.90;;;6.70;99.90;;;;;;4892670;29;20055;-76
2023/04/20 05:57:43;;;;;;;1999.90;999.90;;;6.70;99.90;;;;;;4885370;29;20041;-76
2023/04/20 06:00:14;;;;;;;1999.90;999.90;;;5.10;99.90;;;;;;4888096;29;20052;-77
2023/04/20 06:02:40;;;;;;;1999.90;999.90;;;6.70;99.90;;;;;;4896516;29;20044;-77
2023/04/20 06:05:08;;;;;;;1999.90;999.90;;;7.10;99.90;;;;;;4890704;29;20052;-77
2023/04/20 06:07:34;;;;;;;1999.90;999.90;;;6.70;99.90;;;;;;4881463;29;20514;-76
2023/04/20 06:10:00;;;;;;;1999.90;999.90;;;6.60;99.90;;;;;;4885564;29;20052;-76
2023/04/20 06:12:28;;;;;;;1999.90;999.90;;;6.60;99.90;;;;;;4882206;29;20041;-77
2023/04/20 06:14:55;;;;;;;1999.90;999.90;;;6.50;99.90;;;;;;4894928;29;20180;-76
2023/04/20 06:17:20;;;;;;;1999.90;999.90;;;6.50;99.90;;;;;;4889046;29;20056;-76
2023/04/20 06:19:46;;;;;;;1999.90;999.90;;;;;;;;;;4895478;29;20055;-76
2023/04/20 06:22:13;;;;;;;1999.90;999.90;;;6.80;99.90;;;;;;4893909;29;20053;-77
2023/04/20 06:24:41;;;;;;;1999.90;999.90;;;6.80;99.90;;;;;;4885810;29;20053;-77
2023/04/20 06:27:07;;;;;;;;;;;6.70;99.90;;;;;;4897104;29;20048;-77
2023/04/20 06:29:32;;;;;;;1387.78;85.53;;;6.90;99.90;;;;;;4881071;29;19940;-76
2023/04/20 06:31:58;;;;;;;1999.90;999.90;;;6.80;99.90;;;;;;4896714;29;20052;-77
2023/04/20 06:34:24;;;;;;;1999.90;999.90;;;7.00;99.90;;;;;;4890565;29;20057;-77
2023/04/20 06:36:49;;;;;;;1999.90;999.90;;;6.40;99.90;;;;;;4894548;29;20438;-75
2023/04/20 06:39:16;;;;;;;1999.90;515.42;;;6.60;99.90;;;;;;4897108;29;20084;-74
2023/04/20 06:41:42;;;;;;;1999.90;488.58;;;6.30;99.90;;;;;;4896583;29;20045;-77
2023/04/20 06:44:08;;;;;;;1999.90;999.90;;;6.80;99.90;;;;;;4874809;29;20129;-78
2023/04/20 06:46:34;;;;;;;1999.90;578.60;;;6.60;99.90;;;;;;4893196;29;20150;-77
2023/04/20 06:49:00;;;;;;;1999.90;999.90;;;6.60;99.90;;;;;;4886864;29;20442;-75
2023/04/20 06:51:27;;;;;;;1999.90;523.15;;;6.70;99.90;;;;;;4880808;29;20049;-75
2023/04/20 06:53:53;;;;;;;1999.90;999.90;;;6.60;99.90;;;;;;4887043;29;20049;-76
2023/04/20 06:56:19;;;;;;;1938.13;512.22;;;6.40;99.90;;;;;;4874593;29;20053;-79
2023/04/20 06:58:45;;;;;;;1845.68;815.33;;;6.70;1.00;;;;;;4880639;29;20052;-78
2023/04/20 07:01:10;;;;;;;453.13;31.08;;;6.70;99.90;;;;;;4891045;29;20057;-80
2023/04/20 07:03:36;;;;;;;1548.43;416.38;;;6.50;1.00;;;;;;4887827;29;20060;-81
2023/04/20 07:06:03;;;;;;;1999.90;999.33;;;6.60;99.90;;;;;;4891507;29;20057;-83
2023/04/20 07:08:28;;;;;;;1999.90;999.90;;;6.90;96.70;;;;;;4887136;29;20049;-84
2023/04/20 07:10:54;;;;;;;1999.90;999.90;;;6.90;74.80;;;;;;4882870;29;20060;-84
2023/04/20 07:13:20;;;;;;;1999.90;922.10;;;6.60;1.00;;;;;;4891182;29;20119;-84
2023/04/20 07:15:46;;;;;;;1999.90;872.70;;;6.90;99.90;;;;;;4878935;29;20055;-82
2023/04/20 07:18:12;;;;;;;1999.90;849.13;;;7.50;99.40;;;;;;4891338;29;20048;-83
2023/04/20 07:20:37;;;;;;;1934.75;460.58;;;8.10;1.00;;;;;;4879907;29;20052;-82
2023/04/20 07:23:03;;;;;;;1999.90;999.90;;;6.80;1.00;;;;;;4889279;29;20049;-83
2023/04/20 07:25:31;;;;;;;1999.90;999.90;;;6.30;99.90;;;;;;4894273;29;20446;-83
2023/04/20 07:27:57;;;;;;;1565.18;563.03;;;6.70;72.40;;;;;;4895123;29;20538;-84
2023/04/20 07:30:23;;;;;;;1999.90;603.55;;;6.70;99.90;;;;;;4899678;29;20083;-85
2023/04/20 07:32:49;;;;;;;1997.65;364.35;;;6.90;99.90;;;;;;4898339;29;20072;-85
2023/04/20 07:35:15;;;;;;;1999.90;923.38;;;8.50;99.90;;;;;;4894757;29;20051;-84
2023/04/20 07:37:41;;;;;;;1999.90;999.90;;;;;;;;;;4898507;29;20052;-85
2023/04/20 07:40:08;;;;;;;1999.90;692.50;;;7.10;99.90;;;;;;4896993;29;20056;-86
2023/04/20 07:42:35;;;;;;;1273.68;111.65;;;7.10;99.90;;;;;;4880323;29;20045;-85
2023/04/20 07:45:02;;;;;;;1442.85;523.33;;;7.00;99.90;;;;;;4896469;29;20049;-86
2023/04/20 07:47:28;;;;;;;1518.65;341.30;;;7.10;99.90;;;;;;4897275;29;20060;-86
2023/04/20 07:49:54;;;;;;;1954.15;225.88;;;7.00;99.90;;;;;;4899882;29;20115;-85
2023/04/20 07:52:20;;;;;;;1670.20;202.00;;;7.20;99.90;;;;;;4898307;29;20048;-85
2023/04/20 07:54:46;;;;;;;1999.90;640.40;;;8.50;99.90;;;;;;4871463;29;20056;-84
2023/04/20 07:57:12;;;;;;;1801.38;781.45;;;6.90;99.90;;;;;;4885153;29;20124;-86
2023/04/20 07:59:39;;;;;;;1833.10;769.53;;;7.30;99.90;;;;;;4899036;29;20100;-86
2023/04/20 08:02:05;;;;;;;1952.35;565.63;;;7.40;99.90;;;;;;4899270;29;20049;-86
2023/04/20 08:04:30;;;;;;;1999.90;643.08;;;7.30;99.90;;;;;;4884676;29;20045;-86
2023/04/20 08:06:56;;;;;;;1999.90;885.33;;;;;;;;;;4894458;29;20052;-85
2023/04/20 08:09:23;;;;;;;1999.90;948.47;;;7.20;99.90;;;;;;4865084;29;20406;-86
2023/04/20 08:11:48;;;;;;;1999.90;827.17;;;8.20;99.90;;;;;;4894852;29;20057;-86
2023/04/20 08:14:14;;;;;;;1999.90;585.50;;;7.80;99.90;;;;;;4903379;29;20052;-86
2023/04/20 08:16:40;;;;;;;1999.90;912.67;;;7.70;99.90;;;;;;4896641;29;20111;-85
2023/04/20 08:19:09;;;;;;;1999.90;969.35;;;7.80;99.90;;;;;;4891348;29;20136;-87
2023/04/20 08:21:36;;;;;;;1999.90;999.90;;;7.90;99.90;;;;;;4890213;29;20067;-87
2023/04/20 08:24:02;;;;;;;1978.57;609.33;;;9.30;99.90;;;;;;4899313;29;20052;-85
2023/04/20 08:26:28;;;;;;;1999.90;564.78;;;7.80;99.90;;;;;;4894558;29;20124;-85
2023/04/20 08:28:54;;;;;;;1999.90;999.90;;;8.20;99.90;;;;;;4885847;29;20136;-86
2023/04/20 08:31:19;;;;;;;1999.90;446.40;;;8.40;99.90;;;;;;4896502;29;20049;-85
2023/04/20 08:33:45;;;;;;;1999.90;999.90;;;8.20;99.90;;;;;;4891878;29;20108;-85
2023/04/20 08:36:11;;;;;;;1999.90;481.58;;;9.50;99.90;;;;;;4889453;29;20049;-85
2023/04/20 08:38:37;;;;;;;1999.90;598.13;;;9.30;99.90;;;;;;4902657;29;20105;-86
2023/04/20 08:41:03;;;;;;;1999.90;830.38;;;8.70;99.90;;;;;;4895852;29;20055;-84
2023/04/20 08:43:28;;;;;;;1831.32;317.77;;;8.40;99.90;;;;;;4899022;29;20057;-85
2023/04/20 08:45:58;;;;;;;1999.90;999.90;;;8.60;99.90;;;;;;4896815;29;20056;-85
2023/04/20 08:48:25;;;;;;;1837.10;443.00;;;8.10;99.90;;;;;;4884107;29;20121;-86
2023/04/20 08:50:53;;;;;;;1999.90;999.90;;;8.20;99.90;;;;;;4881423;29;20502;-83
2023/04/20 08:53:19;;;;;;;1999.90;999.90;;;8.00;99.90;;;;;;4896338;29;20043;-84
2023/04/20 08:55:44;;;;;;;1999.90;999.90;;;7.90;99.90;;;;;;4898241;29;20052;-85
2023/04/20 08:58:10;;;;;;;1007.33;256.40;;;8.10;99.90;;;;;;4897420;29;20083;-84
2023/04/20 09:00:46;;;;;;;1489.20;347.02;;;8.10;99.90;;;;;;4877050;29;20097;-85
2023/04/20 09:03:11;;;;;;;1350.35;287.13;;;9.40;99.90;;;;;;4890552;29;20041;-84
2023/04/20 09:05:38;;;;;;;1999.90;999.90;;;8.10;99.90;;;;;;4897526;29;20553;-83
2023/04/20 09:08:04;;;;;;;1295.53;518.35;;;8.20;99.90;;;;;;4891558;29;20446;-82
2023/04/20 09:10:43;;;;;;;1999.90;999.90;;;8.30;99.90;;;;;;4881858;29;20454;-82
2023/04/20 09:13:21;;;;;;;1754.47;302.15;;;8.70;1.00;;;;;;4895363;29;20104;-82
2023/04/20 09:15:47;;;;;;;1999.90;593.73;;;8.70;99.90;;;;;;4898530;29;20080;-82
2023/04/20 09:18:14;;;;;;;1999.90;432.65;;;8.40;1.00;;;;;;4892396;29;20045;-82
2023/04/20 09:20:40;;;;;;;1989.50;447.42;;;8.40;99.90;;;;;;4894454;29;20498;-82
2023/04/20 09:23:20;;;;;;;1999.90;999.90;;;8.80;1.00;;;;;;4894341;29;20391;-81
2023/04/20 09:25:51;;;;;;;1999.90;999.90;;;8.50;99.90;;;;;;4878176;29;20053;-81
2023/04/20 09:28:17;;;;;;;1999.90;999.90;;;8.50;40.80;;;;;;4893356;29;20048;-81
2023/04/20 09:30:44;;;;;;;1999.90;999.90;;;8.50;1.00;;;;;;4880780;29;20109;-81
2023/04/20 09:33:11;;;;;;;1999.90;589.05;;;8.30;1.00;;;;;;4879944;29;20049;-80
2023/04/20 09:35:44;;;;;;;1991.13;427.15;;;8.20;1.00;;;;;;4878712;29;20131;-81
2023/04/20 09:38:14;;;;;;;1971.55;486.30;;;8.10;99.90;;;;;;4892332;29;20053;-81
2023/04/20 09:40:40;;;;;;;1999.90;999.90;;;8.20;99.90;;;;;;4880178;29;20049;-80
2023/04/20 09:43:16;;;;;;;1290.60;514.35;;;8.30;99.90;;;;;;4893731;29;20092;-80
2023/04/20 09:45:42;;;;;;;1999.90;999.90;;;8.40;99.90;;;;;;4892421;29;20139;-80
2023/04/20 09:48:09;;;;;;;1080.47;503.33;;;8.50;99.90;;;;;;4886533;29;20047;-80
2023/04/20 09:50:36;;;;;;;1705.22;420.10;;;8.50;99.90;;;;;;4886282;29;20114;-80
2023/04/20 09:53:05;;;;;;;1999.90;999.90;;;8.50;99.90;;;;;;4882878;29;20399;-80
2023/04/20 09:55:31;;;;;;;1999.90;999.90;;;8.60;99.90;;;;;;4896820;29;20379;-79
2023/04/20 09:58:00;;;;;;;1999.90;999.90;;;8.60;99.90;;;;;;4893975;29;20409;-79
2023/04/20 10:00:26;;;;;;;1999.90;999.90;;;8.60;99.90;;;;;;4892150;29;20128;-78
2023/04/20 10:02:52;;;;;;;1999.90;999.90;;;8.50;99.90;;;;;;4878945;29;20464;-78
2023/04/20 10:05:18;;;;;;;1999.90;999.90;;;8.40;99.90;;;;;;4889793;29;20048;-79
2023/04/20 10:07:44;;;;;;;1999.90;999.90;;;8.30;99.90;;;;;;4896810;29;20056;-79
2023/04/20 10:10:14;;;;;;;1157.20;507.42;;;8.40;99.90;;;;;;4896472;29;20048;-79
2023/04/20 10:12:54;;;;;;;1999.90;999.90;;;8.40;99.90;;;;;;4894329;29;20045;-79
2023/04/20 10:15:23;;;;;;;1999.90;999.90;;;8.50;99.90;;;;;;4892701;29;20052;-79
2023/04/20 10:17:50;;;;;;;1970.53;455.20;;;8.50;99.90;;;;;;4896130;29;20052;-78
2023/04/20 10:20:19;;;;;;;1954.13;539.20;;;8.60;99.90;;;;;;4897299;29;20135;-79
2023/04/20 10:22:45;;;;;;;1999.90;999.90;;;8.70;99.90;;;;;;4885966;29;20076;-79
2023/04/20 10:25:22;;;;;;;1999.90;999.90;;;8.90;99.90;;;;;;4896825;29;20079;-79
2023/04/20 10:28:00;;;;;;;1999.90;999.90;;;8.80;99.90;;;;;;4865575;29;20490;-79
2023/04/20 10:30:27;;;;;;;1102.18;151.85;;;8.90;99.90;;;;;;4892468;29;20040;-79
2023/04/20 10:33:05;;;;;;;1720.43;301.85;;;8.90;99.90;;;;;;4883553;29;20114;-78
2023/04/20 10:35:48;;;;;;;1999.90;999.90;;;8.80;99.90;;;;;;4878770;29;20056;-78
2023/04/20 10:38:15;;;;;;;1999.90;999.90;;;8.80;99.90;;;;;;4877478;29;20061;-78
2023/04/20 10:40:40;;;;;;;1999.90;999.90;;;8.80;99.90;;;;;;4888533;29;20044;-78
2023/04/20 10:43:20;;;;;;;1999.90;999.90;;;8.90;99.90;;;;;;4894372;29;20052;-79
2023/04/20 10:45:46;;;;;;;1999.90;999.90;;;8.70;99.90;;;;;;4882552;29;20052;-78
2023/04/20 10:48:12;;;;;;;1999.90;999.90;;;8.70;99.90;;;;;;4894637;29;20044;-79
2023/04/20 10:50:38;;;;;;;1999.90;999.90;;;8.90;99.90;;;;;;4897157;29;20056;-78
2023/04/20 10:53:04;;;;;;;1999.90;999.90;;;8.90;99.90;;;;;;4888077;29;20522;-79
2023/04/20 10:55:30;;;;;;;1999.90;999.90;;;9.00;99.90;;;;;;4884838;29;20115;-80
2023/04/20 10:57:56;;;;;;;1554.70;754.75;;;9.40;99.90;;;;;;4879181;29;20393;-78
2023/04/20 11:00:29;;;;;;;1999.90;999.90;;;9.00;99.90;;;;;;4895918;29;20059;-78
2023/04/20 11:02:56;;;;;;;1999.90;999.90;;;9.00;99.90;;;;;;4895303;29;20053;-79
2023/04/20 11:05:25;;;;;;;1999.90;999.90;;;8.80;99.90;;;;;;4888265;29;20075;-78
2023/04/20 11:07:54;;;;;;;1999.90;999.90;;;8.80;99.90;;;;;;4892163;29;20053;-78
2023/04/20 11:10:22;;;;;;;1999.90;999.90;;;8.70;99.90;;;;;;4900542;29;20537;-77
2023/04/20 11:12:48;;;;;;;1999.90;999.90;;;8.80;99.90;;;;;;4898078;29;20040;-78
2023/04/20 11:15:15;;;;;;;1999.90;999.90;;;8.80;99.90;;;;;;4896943;29;20485;-78
2023/04/20 11:17:40;;;;;;;1999.90;999.90;;;8.80;99.90;;;;;;4881772;29;20056;-78
2023/04/20 11:20:15;;;;;;;1859.57;821.42;;;8.80;99.90;;;;;;4881582;29;20045;-77
2023/04/20 11:22:42;;;;;;;1961.68;226.70;;;9.00;99.90;;;;;;4881059;29;20053;-77
2023/04/20 11:25:10;;;;;;;1999.90;999.90;;;9.20;99.90;;;;;;4879105;29;20061;-78
2023/04/20 11:27:37;;;;;;;1999.90;999.90;;;9.50;99.90;;;;;;4900043;29;20289;-77
2023/04/20 11:30:08;;;;;;;1999.90;999.90;;;9.80;99.90;;;;;;4898765;29;20111;-77
2023/04/20 11:32:35;;;;;;;1999.90;999.90;;;10.00;99.90;;;;;;4899160;29;20422;-77
2023/04/20 11:35:09;;;;;;;1999.90;999.90;;;10.30;99.90;;;;;;4888298;29;20045;-77
2023/04/20 11:37:52;;;;;;;1999.90;999.90;;;10.00;99.90;;;;;;4881284;29;20464;-77
2023/04/20 11:40:18;;;;;;;1999.90;999.90;;;10.10;99.90;;;;;;4880744;29;20057;-77
2023/04/20 11:42:45;;;;;;;1999.90;999.90;;;10.20;99.90;;;;;;4893714;29;20076;-77
2023/04/20 11:45:11;;;;;;;1999.90;999.90;;;10.50;99.90;;;;;;4898727;29;20059;-77
2023/04/20 11:47:39;;;;;;;1999.90;999.90;;;11.10;99.90;;;;;;4895601;29;20053;-77
2023/04/20 11:50:06;;;;;;;1999.90;999.90;;;11.80;99.90;;;;;;4881658;29;20124;-77
2023/04/20 11:52:32;;;;;;;1999.90;999.90;;;12.50;99.90;;;;;;4885490;29;20057;-77
2023/04/20 11:54:57;;;;;;;1999.90;999.90;;;13.10;96.50;;;;;;4880600;29;20057;-77
2023/04/20 11:57:24;;;;;;;1999.90;999.90;;;13.70;91.20;;;;;;4891095;29;20110;-77
2023/04/20 11:59:50;;;;;;;1999.90;999.90;;;13.60;57.30;;;;;;4895711;29;20402;-77
2023/04/20 12:02:16;;;;;;;1999.90;999.90;;;13.30;56.70;;;;;;4899318;29;20040;-77
2023/04/20 12:04:41;;;;;;;1999.90;999.90;;;13.20;65.60;;;;;;4890670;29;20140;-77
2023/04/20 12:07:07;;;;;;;1999.90;999.90;;;13.30;68.40;;;;;;4896703;29;20462;-77
2023/04/20 12:09:37;;;;;;;1999.90;999.90;;;13.40;57.20;;;;;;4898455;29;20045;-77